Mission

  • Our mission is to promote and protect San Carlos Airport and its flight operations, and to enhance the safety and spirit of general aviation through participation in local community activities.

Live View of San Carlos Airport (SQL)

San Carlos METAR

  • KSQL 290835Z AUTO 32005KT 10SM CLR 18/14 A3004 RMK AO2

    A METAR describes the current weather at an airport. Click here to learn how to read a METAR.


SQL Notams

  • Click here and enter KSQL in the Locations box to read the Notices to Airmen (Notams) about San Carlos Airport.

ASOS from Half Moon Bay Airport (HAF)

Photos at SQL


Chapter

Contact

  • Email: webmaster at sancarlosairport.org
  • Our mailing address:
    San Carlos Airport Association
    P.O. Box 1183
    San Carlos, CA 94070
 

Space Shuttle Flies over San Carlos Tower


Please enjoy the following photo of the Space Shuttle Endeavor as it flew over San Carlos Tower on Sept. 21, 2012 while on the way to its final resting place at the California Science Center in Los Angeles.